Time;durP1;ratioP1;P1;durP2;ratioP2;P2;SDS_P1;SDS_P2;PMS_P1;PMS_P2;Temp;Humidity;BMP_temperature;BMP_pressure;BME280_temperature;BME280_humidity;BME280_pressure;Samples;Min_cycle;Max_cycle;Signal;HPM_P1;HPM_P2
2021/03/12 00:00:21;;;;;;;8.25;1.25;;;4.20;99.90;;;;;;5015910;28;20461;-92
2021/03/12 00:02:48;;;;;;;9.27;1.27;;;4.20;99.90;;;;;;5016148;28;20509;-91
2021/03/12 00:05:16;;;;;;;12.48;1.73;;;4.20;99.90;;;;;;5016918;28;20029;-92
2021/03/12 00:07:42;;;;;;;9.13;1.38;;;4.20;99.90;;;;;;5016770;28;20478;-91
2021/03/12 00:10:16;;;;;;;9.77;1.17;;;4.20;99.90;;;;;;5016790;28;20045;-92
2021/03/12 00:12:45;;;;;;;13.40;1.83;;;4.20;99.90;;;;;;5016797;28;20072;-92
2021/03/12 00:15:17;;;;;;;10.75;1.92;;;4.20;99.90;;;;;;5017933;28;20033;-92
2021/03/12 00:17:45;;;;;;;8.32;1.83;;;4.20;99.90;;;;;;5016519;28;20033;-92
2021/03/12 00:20:21;;;;;;;12.40;2.00;;;4.20;99.90;;;;;;5000449;28;20389;-92
2021/03/12 00:22:49;;;;;;;11.52;1.40;;;4.20;99.90;;;;;;5017241;28;20045;-92
2021/03/12 00:25:28;;;;;;;6.80;1.10;;;4.20;99.90;;;;;;5013000;28;20494;-92
2021/03/12 00:27:53;;;;;;;12.73;1.65;;;4.20;99.90;;;;;;5013497;28;20121;-93
2021/03/12 00:30:22;;;;;;;9.15;0.75;;;4.20;99.90;;;;;;4997121;28;20073;-93
2021/03/12 00:32:47;;;;;;;12.45;2.40;;;4.20;99.90;;;;;;5012994;28;20068;-94
2021/03/12 00:35:14;;;;;;;11.85;1.35;;;4.20;99.90;;;;;;5013156;28;20054;-90
2021/03/12 00:37:41;;;;;;;8.02;1.40;;;4.30;99.90;;;;;;4981128;28;20049;-92
2021/03/12 00:40:13;;;;;;;10.27;1.35;;;4.30;99.90;;;;;;5013564;28;20037;-92
2021/03/12 00:42:49;;;;;;;9.18;1.58;;;4.30;99.90;;;;;;5013375;28;20446;-93
2021/03/12 00:45:16;;;;;;;7.43;1.85;;;4.20;99.90;;;;;;5013948;28;20045;-93
2021/03/12 00:47:43;;;;;;;7.75;1.35;;;4.30;99.90;;;;;;4996925;28;20129;-92
2021/03/12 00:50:12;;;;;;;8.57;1.20;;;4.30;99.90;;;;;;5013294;28;20487;-92
2021/03/12 00:52:39;;;;;;;17.75;3.92;;;4.30;99.90;;;;;;5014321;28;20057;-92
2021/03/12 00:55:06;;;;;;;13.43;2.17;;;4.30;99.90;;;;;;5013056;28;20044;-92
2021/03/12 00:57:32;;;;;;;14.93;2.08;;;4.30;99.90;;;;;;5012967;28;20030;-91
2021/03/12 00:59:57;;;;;;;4.93;1.30;;;4.30;99.90;;;;;;5013303;28;20197;-92
2021/03/12 01:02:25;;;;;;;14.82;1.80;;;4.30;99.90;;;;;;5015183;28;20025;-93
2021/03/12 01:04:50;;;;;;;13.45;1.83;;;4.30;99.90;;;;;;5016963;28;20120;-92
2021/03/12 01:07:17;;;;;;;12.10;1.67;;;4.30;99.90;;;;;;5017186;28;20061;-93
2021/03/12 01:09:48;;;;;;;10.55;1.75;;;4.20;99.90;;;;;;5000812;28;20552;-92
2021/03/12 01:12:14;;;;;;;;;;;4.20;99.90;;;;;;5017099;28;20041;-92
2021/03/12 01:14:43;;;;;;;14.73;1.77;;;4.20;99.90;;;;;;5018005;28;19912;-92
2021/03/12 01:17:08;;;;;;;10.10;1.42;;;4.20;99.90;;;;;;4984484;28;20026;-92
2021/03/12 01:19:34;;;;;;;12.77;1.35;;;4.20;99.90;;;;;;5015620;28;20041;-93
2021/03/12 01:22:00;;;;;;;15.32;2.67;;;4.10;99.90;;;;;;5016737;28;20021;-92
2021/03/12 01:24:26;;;;;;;17.65;2.70;;;4.10;99.90;;;;;;5017129;28;20030;-91
2021/03/12 01:26:53;;;;;;;11.10;2.95;;;4.10;99.90;;;;;;5017400;28;20426;-92
2021/03/12 01:29:19;;;;;;;18.58;3.00;;;4.10;99.90;;;;;;5002280;28;20048;-91
2021/03/12 01:31:44;;;;;;;5.68;1.23;;;4.10;99.90;;;;;;5025329;28;20026;-92
2021/03/12 01:34:10;;;;;;;6.28;1.00;;;4.10;99.90;;;;;;5036558;28;20026;-92
2021/03/12 01:36:36;;;;;;;7.78;1.60;;;4.10;99.90;;;;;;5037691;28;20022;-92
2021/03/12 01:39:03;;;;;;;12.68;2.05;;;4.10;99.90;;;;;;5037521;28;20040;-92
2021/03/12 01:41:29;;;;;;;10.13;1.50;;;4.10;99.90;;;;;;5028877;28;20046;-93
2021/03/12 01:43:55;;;;;;;13.02;1.08;;;4.20;99.90;;;;;;5019754;28;20048;-92
2021/03/12 01:46:21;;;;;;;7.90;2.60;;;4.20;99.90;;;;;;5022270;28;20093;-93
2021/03/12 01:48:48;;;;;;;11.43;1.67;;;4.20;99.90;;;;;;5020727;28;20487;-92
2021/03/12 01:51:14;;;;;;;17.05;2.25;;;4.20;99.90;;;;;;5019431;28;20026;-92
2021/03/12 01:53:41;;;;;;;9.88;1.23;;;4.20;99.90;;;;;;5019179;28;20040;-92
2021/03/12 01:56:15;;;;;;;4.80;0.73;;;4.20;99.90;;;;;;5018456;28;20112;-92
2021/03/12 01:58:41;;;;;;;9.38;1.85;;;4.20;99.90;;;;;;5018385;28;20018;-92
2021/03/12 02:01:08;;;;;;;13.05;1.90;;;4.20;99.90;;;;;;5017578;28;20479;-93
2021/03/12 02:03:34;;;;;;;12.52;1.60;;;4.30;99.90;;;;;;5017359;28;20025;-93
2021/03/12 02:06:00;;;;;;;10.65;1.45;;;4.20;99.90;;;;;;5017900;28;20062;-92
2021/03/12 02:08:26;;;;;;;11.48;1.60;;;4.30;99.90;;;;;;5017664;28;20487;-92
2021/03/12 02:10:57;;;;;;;16.10;2.10;;;4.30;99.90;;;;;;5017441;28;20041;-93
2021/03/12 02:13:35;;;;;;;;;;;4.30;99.90;;;;;;5017292;28;20026;-92
2021/03/12 02:16:08;;;;;;;6.85;1.23;;;4.30;99.90;;;;;;5017119;28;19910;-93
2021/03/12 02:19:02;;;;;;;11.75;2.10;;;4.40;99.90;;;;;;5016827;28;20113;-93
2021/03/12 02:21:32;;;;;;;19.33;2.03;;;4.40;99.90;;;;;;5016735;28;20038;-92
2021/03/12 02:24:17;;;;;;;7.47;1.58;;;4.40;99.90;;;;;;5017241;28;20034;-92
2021/03/12 02:27:03;;;;;;;13.15;2.03;;;4.40;99.90;;;;;;5016167;28;20041;-91
2021/03/12 02:29:33;;;;;;;12.07;1.95;;;4.40;99.90;;;;;;5016815;28;20058;-92
2021/03/12 02:32:03;;;;;;;14.73;2.00;;;4.40;99.90;;;;;;5016583;28;20057;-93
2021/03/12 02:34:34;;;;;;;13.70;1.80;;;4.40;99.90;;;;;;5000240;28;20022;-92
2021/03/12 02:37:01;;;;;;;7.13;1.45;;;4.40;99.90;;;;;;5016356;28;20034;-93
2021/03/12 02:39:30;;;;;;;17.50;2.92;;;4.40;99.90;;;;;;5016059;28;20038;-91
2021/03/12 02:41:59;;;;;;;9.07;2.08;;;4.40;99.90;;;;;;5015933;28;20030;-92
2021/03/12 02:44:28;;;;;;;9.63;2.17;;;4.50;99.90;;;;;;5016209;28;20490;-93
2021/03/12 02:47:09;;;;;;;5.40;1.50;;;4.50;99.90;;;;;;5016243;28;20025;-94
2021/03/12 02:50:14;;;;;;;11.52;1.23;;;4.50;99.90;;;;;;5017035;28;20029;-94
2021/03/12 02:52:41;;;;;;;11.27;1.27;;;4.40;99.90;;;;;;4987908;28;20037;-93
2021/03/12 02:55:09;;;;;;;9.55;1.63;;;4.40;99.90;;;;;;5016810;28;20026;-92
2021/03/12 02:57:38;;;;;;;10.93;1.83;;;4.40;99.90;;;;;;5015411;28;20026;-93
2021/03/12 03:00:06;;;;;;;3.83;1.08;;;4.40;99.90;;;;;;5016643;28;20022;-95
2021/03/12 03:02:32;;;;;;;18.30;2.05;;;4.40;99.90;;;;;;4999136;28;20450;-93
2021/03/12 03:05:00;;;;;;;13.10;1.45;;;4.40;99.90;;;;;;5015509;28;20018;-94
2021/03/12 03:07:26;;;;;;;15.98;1.65;;;4.40;99.90;;;;;;5015647;28;20068;-93
2021/03/12 03:09:53;;;;;;;13.15;1.50;;;4.30;99.90;;;;;;5014607;28;20133;-94
2021/03/12 03:12:22;;;;;;;16.70;1.88;;;4.30;99.90;;;;;;5014804;28;20029;-92
2021/03/12 03:14:55;;;;;;;11.18;1.90;;;4.20;99.90;;;;;;5014661;28;20033;-92
2021/03/12 03:17:22;;;;;;;13.73;1.95;;;4.30;99.90;;;;;;5014779;28;20053;-92
2021/03/12 03:19:49;;;;;;;8.65;1.52;;;4.30;99.90;;;;;;5014546;28;20029;-92
2021/03/12 03:22:20;;;;;;;11.85;1.80;;;4.30;99.90;;;;;;5015225;28;20080;-93
2021/03/12 03:24:46;;;;;;;10.50;1.40;;;4.30;99.90;;;;;;5017134;28;20030;-93
2021/03/12 03:27:12;;;;;;;4.25;0.88;;;4.30;99.90;;;;;;5018837;28;20033;-92
2021/03/12 03:29:38;;;;;;;9.85;1.58;;;4.30;99.90;;;;;;5018428;28;20087;-91
2021/03/12 03:32:06;;;;;;;9.75;1.40;;;4.20;99.90;;;;;;5018047;28;20539;-91
2021/03/12 03:34:33;;;;;;;13.32;2.25;;;4.20;99.90;;;;;;5017113;28;20482;-92
2021/03/12 03:36:59;;;;;;;12.50;1.55;;;4.20;99.90;;;;;;5017109;28;20094;-91
2021/03/12 03:39:24;;;;;;;10.68;1.52;;;4.20;99.90;;;;;;5016956;28;20033;-93
2021/03/12 03:41:52;;;;;;;12.93;1.75;;;4.20;99.90;;;;;;5016747;28;20021;-92
2021/03/12 03:44:23;;;;;;;2.45;0.73;;;4.20;99.90;;;;;;5016938;28;20117;-91
2021/03/12 03:46:51;;;;;;;11.13;1.67;;;4.20;99.90;;;;;;5016942;28;20025;-94
2021/03/12 03:49:18;;;;;;;11.65;1.60;;;4.20;99.90;;;;;;5016799;28;20063;-90
2021/03/12 03:51:47;;;;;;;11.63;1.90;;;4.20;99.90;;;;;;5016874;28;20094;-91
2021/03/12 03:54:20;;;;;;;6.75;1.38;;;4.30;99.90;;;;;;5016930;28;20109;-90
2021/03/12 03:56:46;;;;;;;10.55;2.20;;;4.30;99.90;;;;;;5016932;28;20037;-90
2021/03/12 03:59:14;;;;;;;15.00;2.30;;;4.30;99.90;;;;;;5016648;28;20112;-93
2021/03/12 04:01:43;;;;;;;12.95;1.67;;;4.30;99.90;;;;;;5017052;28;20025;-92
2021/03/12 04:04:09;;;;;;;11.38;1.88;;;4.40;99.90;;;;;;5017017;28;20021;-90
2021/03/12 04:06:36;;;;;;;14.85;2.42;;;4.40;99.90;;;;;;5016728;28;20028;-92
2021/03/12 04:09:04;;;;;;;13.00;1.80;;;4.30;99.90;;;;;;5016625;28;20220;-92
2021/03/12 04:11:33;;;;;;;11.77;2.25;;;4.40;99.90;;;;;;5017025;28;20057;-92
2021/03/12 04:14:00;;;;;;;13.85;2.40;;;4.30;99.90;;;;;;5016865;28;20457;-92
2021/03/12 04:16:26;;;;;;;16.50;2.10;;;4.40;99.90;;;;;;5016854;28;20025;-91
2021/03/12 04:18:53;;;;;;;18.15;2.30;;;4.40;99.90;;;;;;5016544;28;20025;-92
2021/03/12 04:21:20;;;;;;;12.68;2.45;;;4.40;99.90;;;;;;5016777;28;20033;-92
2021/03/12 04:23:48;;;;;;;10.98;2.80;;;4.50;99.90;;;;;;5016735;28;20032;-91
2021/03/12 04:26:15;;;;;;;12.90;1.83;;;4.40;99.90;;;;;;5012721;28;20042;-91
2021/03/12 04:28:42;;;;;;;18.13;2.10;;;4.40;99.90;;;;;;5013142;28;20025;-92
2021/03/12 04:31:08;;;;;;;16.52;2.03;;;4.40;99.90;;;;;;5015797;28;20038;-91
2021/03/12 04:33:36;;;;;;;5.43;1.10;;;4.40;99.90;;;;;;5021524;28;20022;-92
2021/03/12 04:36:02;;;;;;;8.25;1.23;;;4.40;99.90;;;;;;5020976;28;20037;-91
2021/03/12 04:38:29;;;;;;;11.77;1.60;;;4.30;99.90;;;;;;5021589;28;20107;-92
2021/03/12 04:40:54;;;;;;;6.53;1.25;;;4.30;99.90;;;;;;5019342;28;20065;-91
2021/03/12 04:43:21;;;;;;;8.55;1.80;;;4.30;99.90;;;;;;5017400;28;20490;-91
2021/03/12 04:45:47;;;;;;;12.13;2.30;;;4.30;99.90;;;;;;5017746;28;20034;-92
2021/03/12 04:48:15;;;;;;;6.75;1.17;;;4.30;99.90;;;;;;5017241;28;20021;-91
2021/03/12 04:50:41;;;;;;;11.30;1.20;;;4.30;99.90;;;;;;5017174;28;20037;-92
2021/03/12 04:53:10;;;;;;;9.77;1.58;;;4.30;99.90;;;;;;5016829;28;20460;-92
2021/03/12 04:55:37;;;;;;;11.27;2.15;;;4.30;99.90;;;;;;5016264;28;20042;-92
2021/03/12 04:58:05;;;;;;;8.77;1.33;;;4.30;99.90;;;;;;5016361;28;20060;-91
2021/03/12 05:00:32;;;;;;;7.07;1.10;;;4.30;99.90;;;;;;4999892;28;20033;-91
2021/03/12 05:02:59;;;;;;;4.43;1.23;;;4.30;99.90;;;;;;5016204;28;20479;-92
2021/03/12 05:05:24;;;;;;;6.63;1.02;;;4.30;99.90;;;;;;5015985;28;20022;-92
2021/03/12 05:07:53;;;;;;;5.70;1.17;;;4.20;99.90;;;;;;5015396;28;20022;-93
2021/03/12 05:10:19;;;;;;;6.85;1.60;;;4.20;99.90;;;;;;5014870;28;20033;-92
2021/03/12 05:12:45;;;;;;;8.27;1.17;;;4.30;99.90;;;;;;5016328;28;20030;-93
2021/03/12 05:15:11;;;;;;;4.30;1.30;;;4.20;99.90;;;;;;5016595;28;20033;-93
2021/03/12 05:17:38;;;;;;;4.25;0.93;;;4.20;99.90;;;;;;5016788;28;20108;-92
2021/03/12 05:20:04;;;;;;;6.53;0.95;;;4.20;99.90;;;;;;5016712;28;20045;-93
2021/03/12 05:22:34;;;;;;;7.18;1.40;;;4.10;99.90;;;;;;5017858;28;20064;-92
2021/03/12 05:25:01;;;;;;;4.43;1.13;;;4.10;99.90;;;;;;5018273;28;20045;-91
2021/03/12 05:27:27;;;;;;;9.75;1.27;;;4.10;99.90;;;;;;5020133;28;20038;-90
2021/03/12 05:29:54;;;;;;;13.38;1.20;;;4.10;99.90;;;;;;5038393;28;20048;-91
2021/03/12 05:32:20;;;;;;;6.25;1.20;;;4.10;99.90;;;;;;5039786;28;20041;-92
2021/03/12 05:34:48;;;;;;;4.82;1.27;;;4.10;99.90;;;;;;5035168;28;20510;-91
2021/03/12 05:37:15;;;;;;;6.47;1.00;;;4.10;99.90;;;;;;5022052;28;20109;-92
2021/03/12 05:39:40;;;;;;;9.32;2.33;;;4.20;99.90;;;;;;5020244;28;20018;-91
2021/03/12 05:42:07;;;;;;;13.60;2.47;;;4.20;99.90;;;;;;5019576;28;20037;-91
2021/03/12 05:44:35;;;;;;;1.55;0.98;;;4.20;99.90;;;;;;5019827;28;20034;-92
2021/03/12 05:47:09;;;;;;;7.78;1.30;;;4.20;99.90;;;;;;5017707;28;20026;-91
2021/03/12 05:49:37;;;;;;;5.00;1.00;;;4.20;99.90;;;;;;5018250;28;20050;-90
2021/03/12 05:52:04;;;;;;;6.13;1.15;;;4.20;99.90;;;;;;5001357;28;20062;-92
2021/03/12 05:54:32;;;;;;;3.28;1.00;;;4.20;99.90;;;;;;5017825;28;20037;-91
2021/03/12 05:57:02;;;;;;;12.93;1.33;;;4.20;99.90;;;;;;5017806;28;20048;-91
2021/03/12 05:59:32;;;;;;;14.77;1.75;;;4.20;99.90;;;;;;5018749;28;20026;-92
2021/03/12 06:02:03;;;;;;;8.43;1.70;;;4.20;99.90;;;;;;5017139;28;20030;-91
2021/03/12 06:04:31;;;;;;;11.15;2.00;;;4.20;99.90;;;;;;5017447;28;20041;-91
2021/03/12 06:07:00;;;;;;;9.10;2.22;;;4.30;99.90;;;;;;5018109;28;20034;-92
2021/03/12 06:09:26;;;;;;;7.15;1.27;;;4.30;99.90;;;;;;5018148;28;20025;-91
2021/03/12 06:11:54;;;;;;;14.70;1.58;;;4.30;99.90;;;;;;5000629;28;20037;-91
2021/03/12 06:14:59;;;;;;;3.72;1.20;;;4.30;99.90;;;;;;5016450;28;20026;-91
2021/03/12 06:17:38;;;;;;;16.90;2.72;;;4.40;99.90;;;;;;5016545;28;20042;-93
2021/03/12 06:20:12;;;;;;;5.18;1.20;;;4.40;99.90;;;;;;5016751;28;20033;-95
2021/03/12 06:22:50;;;;;;;7.43;1.17;;;4.40;99.90;;;;;;5019492;28;20033;-94
2021/03/12 06:25:23;;;;;;;11.07;1.45;;;4.40;99.90;;;;;;5017684;28;20073;-96
2021/03/12 06:27:54;;;;;;;5.28;1.60;;;4.40;99.90;;;;;;5017841;28;20030;-93
2021/03/12 06:30:22;;;;;;;6.13;1.02;;;4.40;99.90;;;;;;5015832;28;20038;-92
2021/03/12 06:32:56;;;;;;;6.90;1.42;;;4.30;99.90;;;;;;5015758;28;20060;-94
2021/03/12 06:35:26;;;;;;;10.48;1.38;;;4.30;99.90;;;;;;5015127;28;20057;-93
2021/03/12 06:37:53;;;;;;;8.38;1.80;;;4.20;99.90;;;;;;5014991;28;20078;-93
2021/03/12 06:40:27;;;;;;;5.65;1.27;;;4.20;99.90;;;;;;5014864;28;20104;-94
2021/03/12 06:43:28;;;;;;;6.65;1.08;;;4.20;99.90;;;;;;5014542;28;20022;-92
2021/03/12 06:45:57;;;;;;;9.75;1.50;;;4.10;99.90;;;;;;4918101;29;20401;-92
2021/03/12 06:48:37;;;;;;;9.70;1.20;;;4.10;99.90;;;;;;4934744;29;20616;-94
2021/03/12 06:51:13;;;;;;;3.20;1.33;;;4.00;99.90;;;;;;4919865;29;20129;-94
2021/03/12 06:53:43;;;;;;;6.30;1.15;;;4.00;99.90;;;;;;4917899;29;20269;-93
2021/03/12 06:56:12;;;;;;;4.18;1.45;;;3.90;99.90;;;;;;4919463;29;20034;-92
2021/03/12 06:58:38;;;;;;;3.47;1.20;;;3.90;99.90;;;;;;4917663;29;20039;-93
2021/03/12 07:01:25;;;;;;;6.22;1.00;;;3.90;99.90;;;;;;4918615;29;20393;-93
2021/03/12 07:04:12;;;;;;;4.30;1.30;;;3.80;99.90;;;;;;4934119;29;20023;-91
2021/03/12 07:06:48;;;;;;;4.43;1.23;;;3.80;99.90;;;;;;4918590;29;20087;-92
2021/03/12 07:09:14;;;;;;;6.82;1.30;;;3.80;99.90;;;;;;4918134;29;20508;-92
2021/03/12 07:11:43;;;;;;;1.50;0.82;;;3.70;99.90;;;;;;4918781;29;20040;-92
2021/03/12 07:14:09;;;;;;;2.08;0.93;;;3.70;99.90;;;;;;4920400;29;20032;-92
2021/03/12 07:16:35;;;;;;;1.65;0.63;;;3.70;99.90;;;;;;4919394;29;20035;-91
2021/03/12 07:19:01;;;;;;;1.58;0.70;;;3.70;99.90;;;;;;4946809;28;20042;-92
2021/03/12 07:21:29;;;;;;;2.00;0.90;;;3.70;99.90;;;;;;5014163;28;20026;-91
2021/03/12 07:24:03;;;;;;;1.90;0.70;;;3.80;99.90;;;;;;5014062;28;20022;-91
2021/03/12 07:26:40;;;;;;;0.77;0.65;;;3.80;99.90;;;;;;5013775;28;20049;-91
2021/03/12 07:29:09;;;;;;;6.75;2.08;;;3.80;99.90;;;;;;5009806;28;20025;-92
2021/03/12 07:31:37;;;;;;;4.22;0.88;;;3.80;99.90;;;;;;5015401;28;20026;-93
2021/03/12 07:34:15;;;;;;;1.98;1.33;;;3.80;99.90;;;;;;5018316;28;20027;-91
2021/03/12 07:36:50;;;;;;;1.00;0.68;;;3.90;99.90;;;;;;5018353;28;20124;-91
2021/03/12 07:39:24;;;;;;;3.45;1.00;;;3.90;99.90;;;;;;5016243;28;20026;-92
2021/03/12 07:41:53;;;;;;;1.80;0.80;;;3.90;99.90;;;;;;5016665;28;20030;-93
2021/03/12 07:44:22;;;;;;;6.47;0.50;;;3.90;99.90;;;;;;5012302;28;20026;-93
2021/03/12 07:46:52;;;;;;;3.40;1.10;;;3.90;99.90;;;;;;5010409;28;20033;-93
2021/03/12 07:49:27;;;;;;;2.30;1.00;;;4.00;99.90;;;;;;5013365;28;20041;-89
2021/03/12 07:51:52;;;;;;;7.97;0.90;;;4.00;99.90;;;;;;5011215;28;20125;-91
2021/03/12 07:54:41;;;;;;;8.90;1.83;;;4.00;99.90;;;;;;5011819;28;20133;-91
2021/03/12 07:57:08;;;;;;;4.25;1.60;;;4.00;99.90;;;;;;5009345;28;20057;-93
2021/03/12 07:59:46;;;;;;;7.00;2.30;;;4.00;99.90;;;;;;5011695;28;20030;-93
2021/03/12 08:02:19;;;;;;;4.63;2.97;;;4.00;99.90;;;;;;5027515;28;20042;-93
2021/03/12 08:04:47;;;;;;;5.97;2.78;;;4.10;99.90;;;;;;5026104;28;20429;-92
2021/03/12 08:07:19;;;;;;;7.25;3.25;;;4.10;99.90;;;;;;5012275;28;20172;-93
2021/03/12 08:09:49;;;;;;;5.97;2.08;;;4.10;99.90;;;;;;5007342;28;20030;-93
2021/03/12 08:12:35;;;;;;;3.38;1.75;;;4.10;99.90;;;;;;5011491;28;20080;-91
2021/03/12 08:15:22;;;;;;;6.18;1.35;;;4.00;99.90;;;;;;5026215;28;20036;-92
2021/03/12 08:17:57;;;;;;;3.63;1.10;;;4.00;99.90;;;;;;5011331;28;20021;-91
2021/03/12 08:20:26;;;;;;;2.70;1.38;;;4.00;99.90;;;;;;5027880;28;20042;-94
2021/03/12 08:22:53;;;;;;;3.65;1.00;;;4.00;99.90;;;;;;5012070;28;20057;-95
2021/03/12 08:25:41;;;;;;;3.60;1.10;;;3.90;99.90;;;;;;5013700;28;20050;-95
2021/03/12 08:28:06;;;;;;;3.30;1.00;;;3.90;99.90;;;;;;5021017;28;20022;-95
2021/03/12 08:30:34;;;;;;;5.53;1.25;;;3.90;99.90;;;;;;5023502;28;20026;-93
2021/03/12 08:33:05;;;;;;;3.40;1.90;;;3.90;99.90;;;;;;5033244;28;20090;-86
2021/03/12 08:35:36;;;;;;;;;;;3.90;99.90;;;;;;5037331;28;20054;-86
2021/03/12 08:38:10;;;;;;;28.02;11.63;;;3.80;99.90;;;;;;5037546;28;19894;-87
2021/03/12 08:40:42;;;;;;;14.85;5.82;;;3.80;99.90;;;;;;5035649;28;20041;-94
2021/03/12 08:43:09;;;;;;;24.98;10.70;;;3.60;99.90;;;;;;5034754;28;20030;-91
2021/03/12 08:45:48;;;;;;;31.33;13.13;;;3.50;99.90;;;;;;5027009;28;20052;-91
2021/03/12 08:48:20;;;;;;;17.52;8.18;;;3.40;99.90;;;;;;5021252;28;20018;-94
2021/03/12 08:51:02;;;;;;;12.88;5.43;;;3.20;99.90;;;;;;5012725;28;20049;-94
2021/03/12 08:53:33;;;;;;;19.20;6.32;;;3.10;99.90;;;;;;5011408;28;20045;-90
2021/03/12 08:56:00;;;;;;;12.43;5.22;;;3.00;99.90;;;;;;5011573;28;20050;-93
2021/03/12 09:00:57;;;;;;;10.85;4.47;;;2.90;99.90;;;;;;4981281;28;20049;-92
2021/03/12 09:03:27;;;;;;;9.00;4.00;;;2.90;99.90;;;;;;5035345;28;20068;-92
2021/03/12 09:05:54;;;;;;;6.93;3.22;;;2.90;99.90;;;;;;5034870;28;20010;-93
2021/03/12 09:08:24;;;;;;;8.25;3.55;;;2.90;99.90;;;;;;5036302;28;20042;-92
2021/03/12 09:10:51;;;;;;;3.58;2.03;;;2.80;99.90;;;;;;5036214;28;20093;-92
2021/03/12 09:13:22;;;;;;;4.25;1.73;;;2.80;99.90;;;;;;5036455;28;20037;-93
2021/03/12 09:15:49;;;;;;;1.60;1.23;;;2.80;99.90;;;;;;5036099;28;20030;-94
2021/03/12 09:18:17;;;;;;;2.17;1.40;;;2.80;99.90;;;;;;5036087;28;20026;-93
2021/03/12 09:20:44;;;;;;;4.43;2.13;;;2.90;99.90;;;;;;5037030;28;20014;-92
2021/03/12 09:23:10;;;;;;;5.65;1.48;;;2.90;99.90;;;;;;5038332;28;20017;-93
2021/03/12 09:25:36;;;;;;;4.40;2.50;;;2.90;99.90;;;;;;5037553;28;20125;-93
2021/03/12 09:28:13;;;;;;;3.30;1.80;;;2.90;99.90;;;;;;5029915;28;20041;-94
2021/03/12 09:30:47;;;;;;;3.20;2.10;;;2.90;99.90;;;;;;5039360;28;20060;-94
2021/03/12 09:35:40;;;;;;;2.03;1.08;;;2.90;99.90;;;;;;5023273;28;20014;-94
2021/03/12 09:38:07;;;;;;;1.10;0.85;;;2.90;99.90;;;;;;5039676;28;20021;-94
2021/03/12 09:40:41;;;;;;;1.67;1.20;;;2.90;99.90;;;;;;5040522;28;20077;-95
2021/03/12 09:43:13;;;;;;;3.78;1.33;;;2.90;99.90;;;;;;5040444;28;20046;-96
2021/03/12 09:45:48;;;;;;;2.03;1.60;;;3.00;99.90;;;;;;5166796;23;20041;-94
2021/03/12 09:53:52;;;;;;;3.05;2.10;;;3.40;99.90;;;;;;5303208;23;20029;-94
2021/03/12 09:56:20;;;;;;;6.18;2.05;;;3.60;99.90;;;;;;5077900;28;20075;-95
2021/03/12 09:58:48;;;;;;;8.93;2.00;;;3.90;99.90;;;;;;5099069;28;20017;-96
2021/03/12 10:01:19;;;;;;;3.70;2.25;;;4.10;99.90;;;;;;5098500;28;20036;-96
2021/03/12 10:03:45;;;;;;;4.63;2.47;;;4.40;99.90;;;;;;5082294;28;20043;-96
2021/03/12 10:12:07;;;;;;;3.13;1.23;;;5.20;99.90;;;;;;1027644;23;20322;-90
2021/03/12 10:14:36;;;;;;;7.28;3.20;;;5.30;99.90;;;;;;5055112;28;20126;-95
2021/03/12 10:17:19;;;;;;;4.45;2.75;;;5.50;99.90;;;;;;5067701;28;20029;-95
2021/03/12 10:19:58;;;;;;;2.80;2.38;;;5.60;99.90;;;;;;5076665;28;20037;-94
2021/03/12 10:22:43;;;;;;;8.38;3.05;;;5.60;99.90;;;;;;5078900;28;20012;-93
2021/03/12 10:25:15;;;;;;;7.32;2.20;;;5.70;99.90;;;;;;5072344;28;20017;-95
2021/03/12 10:28:09;;;;;;;6.15;2.15;;;6.00;99.90;;;;;;5048887;28;20025;-94
2021/03/12 10:30:35;;;;;;;3.28;1.80;;;6.10;99.90;;;;;;5052848;28;20056;-96
2021/03/12 11:54:44;;;;;;;8.07;1.20;;;8.90;93.00;;;;;;5174207;23;20057;-96
2021/03/12 11:57:09;;;;;;;7.32;1.02;;;9.00;93.10;;;;;;4985661;28;20079;-95
2021/03/12 11:59:36;;;;;;;3.85;1.58;;;9.20;92.80;;;;;;5017769;28;20010;-96
2021/03/12 12:02:03;;;;;;;4.25;1.50;;;9.50;93.00;;;;;;5017771;28;20049;-96
2021/03/12 12:07:05;;;;;;;2.95;0.93;;;9.40;92.50;;;;;;5608394;23;20265;-94
2021/03/12 12:09:33;;;;;;;7.85;1.60;;;9.20;92.00;;;;;;4953397;28;20125;-94
2021/03/12 12:20:48;;;;;;;5.65;1.00;;;8.40;94.60;;;;;;5487049;23;20070;-94
2021/03/12 12:23:14;;;;;;;5.55;1.10;;;8.60;95.20;;;;;;4951116;28;20035;-95
2021/03/12 13:46:35;;;;;;;5.68;0.95;;;9.50;85.20;;;;;;5062938;23;20048;-94
2021/03/12 13:54:18;;;;;;;4.07;0.93;;;9.00;86.60;;;;;;5120816;23;20058;-96
2021/03/12 13:56:48;;;;;;;4.25;1.02;;;9.00;87.20;;;;;;4952800;28;20044;-96
2021/03/12 13:59:21;;;;;;;5.20;1.23;;;9.00;87.70;;;;;;4961380;29;20055;-96
2021/03/12 14:04:22;;;;;;;4.38;0.90;;;9.10;87.40;;;;;;5200045;23;20095;-94
2021/03/12 14:06:49;;;;;;;7.57;1.05;;;8.90;86.10;;;;;;4983689;28;20395;-95
2021/03/12 14:09:17;;;;;;;3.25;0.70;;;8.90;86.20;;;;;;4967494;28;20047;-94
2021/03/12 14:11:46;;;;;;;9.63;0.98;;;8.90;86.70;;;;;;4959828;28;20148;-95
2021/03/12 14:14:13;;;;;;;3.65;0.90;;;9.10;85.30;;;;;;4962368;28;20023;-95
2021/03/12 14:16:42;;;;;;;11.95;1.52;;;9.10;84.10;;;;;;4960577;28;20023;-95
2021/03/12 14:19:08;;;;;;;4.95;1.70;;;9.10;84.20;;;;;;4963494;28;20019;-94
2021/03/12 14:21:34;;;;;;;5.85;1.08;;;9.00;84.60;;;;;;4959235;28;20055;-95
2021/03/12 14:24:02;;;;;;;6.03;1.13;;;8.90;84.70;;;;;;4977795;28;20019;-95
2021/03/12 14:26:27;;;;;;;4.65;0.90;;;9.00;84.70;;;;;;4962875;28;20042;-95
2021/03/12 14:28:54;;;;;;;3.22;0.98;;;9.00;84.50;;;;;;4964422;28;20027;-93
2021/03/12 14:45:13;;;;;;;5.63;0.95;;;10.30;80.20;;;;;;5357989;23;20050;-94
2021/03/12 14:47:40;;;;;;;6.32;1.30;;;10.60;79.20;;;;;;4951241;29;20043;-95
2021/03/12 14:50:12;;;;;;;4.72;0.82;;;10.70;78.00;;;;;;4951595;29;20556;-95
2021/03/12 14:52:38;;;;;;;7.75;0.95;;;10.70;77.40;;;;;;4943818;29;20034;-95
2021/03/12 14:55:06;;;;;;;7.32;1.30;;;10.70;77.80;;;;;;4938126;29;20394;-93
2021/03/12 14:57:32;;;;;;;4.43;1.25;;;10.60;77.90;;;;;;4941580;29;20035;-95
2021/03/12 14:59:57;;;;;;;8.18;1.65;;;10.50;78.30;;;;;;4933556;29;20043;-96
2021/03/12 15:02:23;;;;;;;4.43;1.33;;;10.50;78.50;;;;;;4945282;29;20028;-93
2021/03/12 15:04:51;;;;;;;10.60;1.80;;;10.40;78.30;;;;;;4925775;29;20497;-96
2021/03/12 15:07:17;;;;;;;7.35;1.50;;;10.30;78.60;;;;;;5011315;23;20051;-92
2021/03/12 15:09:48;;;;;;;9.20;1.23;;;10.10;78.30;;;;;;4942416;29;20032;-96
2021/03/12 15:12:14;;;;;;;6.60;1.05;;;9.90;78.70;;;;;;4940364;29;20055;-95
2021/03/12 15:14:40;;;;;;;6.97;0.90;;;9.60;79.00;;;;;;4946885;29;20016;-95
2021/03/12 15:17:05;;;;;;;7.95;1.60;;;9.30;79.90;;;;;;4967940;29;20046;-96
2021/03/12 15:19:46;;;;;;;7.22;1.63;;;9.30;80.80;;;;;;4942478;29;20035;-96
2021/03/12 15:22:15;;;;;;;5.32;1.20;;;9.30;81.20;;;;;;4938589;29;20035;-95
2021/03/12 15:24:40;;;;;;;5.45;1.15;;;9.30;81.10;;;;;;4944974;29;20035;-95
2021/03/12 15:27:11;;;;;;;6.00;1.30;;;9.30;80.60;;;;;;4943597;29;20012;-95
2021/03/12 15:29:38;;;;;;;5.43;1.27;;;9.30;81.00;;;;;;4946643;29;20036;-95
2021/03/12 15:32:05;;;;;;;4.22;1.20;;;9.50;81.10;;;;;;4935536;29;20044;-95
2021/03/12 15:34:31;;;;;;;7.85;1.25;;;9.60;80.00;;;;;;4956055;29;20032;-95
2021/03/12 15:37:00;;;;;;;3.60;0.98;;;9.60;79.80;;;;;;4949151;29;20079;-95
2021/03/12 15:39:33;;;;;;;5.97;1.25;;;9.60;78.50;;;;;;4953503;29;20044;-95
2021/03/12 15:42:27;;;;;;;5.78;1.30;;;9.30;77.90;;;;;;4954733;29;20035;-96
2021/03/12 15:44:54;;;;;;;10.18;1.98;;;9.10;78.30;;;;;;4938735;29;20047;-95
2021/03/12 15:47:25;;;;;;;6.15;1.40;;;8.80;79.00;;;;;;4953848;29;20039;-96
2021/03/12 15:49:52;;;;;;;8.73;1.55;;;8.60;79.90;;;;;;4950353;29;20047;-95
2021/03/12 15:52:28;;;;;;;9.75;2.10;;;8.40;80.50;;;;;;4952134;29;20059;-95
2021/03/12 15:54:54;;;;;;;14.00;1.60;;;8.30;81.10;;;;;;4958791;29;20051;-95
2021/03/12 15:57:26;;;;;;;9.43;1.52;;;8.20;82.00;;;;;;4955498;29;20039;-94
2021/03/12 15:59:56;;;;;;;7.68;1.50;;;8.00;82.60;;;;;;4951928;29;20036;-95
2021/03/12 16:02:22;;;;;;;2.97;0.57;;;8.00;83.50;;;;;;4952442;29;20469;-95
2021/03/12 16:04:51;;;;;;;11.32;1.52;;;7.90;84.00;;;;;;4947259;29;20050;-94
2021/03/12 16:07:56;;;;;;;9.35;1.88;;;7.90;84.30;;;;;;4930104;29;20039;-95
2021/03/12 16:10:50;;;;;;;11.63;1.65;;;7.90;85.00;;;;;;4955412;29;20053;-95
2021/03/12 16:13:22;;;;;;;9.27;1.48;;;7.80;85.60;;;;;;4952711;29;20097;-96
2021/03/12 16:18:56;;;;;;;8.00;1.52;;;7.80;86.40;;;;;;4972598;29;20042;-96
2021/03/12 16:21:45;;;;;;;1.60;0.55;;;7.70;86.00;;;;;;4959795;29;20047;-96
2021/03/12 16:25:15;;;;;;;7.22;1.38;;;7.60;86.10;;;;;;4976419;29;20007;-95
2021/03/12 16:28:12;;;;;;;4.55;0.88;;;7.50;86.30;;;;;;4976522;29;20038;-96
2021/03/12 16:33:26;;;;;;;7.43;1.45;;;7.40;87.30;;;;;;5096614;23;20061;-96
2021/03/12 16:35:54;;;;;;;5.20;1.10;;;7.40;87.60;;;;;;4977403;28;20035;-95
2021/03/12 16:38:20;;;;;;;8.65;1.50;;;7.40;87.70;;;;;;4978348;28;20039;-96
2021/03/12 16:40:51;;;;;;;9.88;1.85;;;7.50;88.00;;;;;;4979965;28;20021;-96
2021/03/12 16:43:19;;;;;;;;;;;7.50;88.20;;;;;;4998424;28;20023;-96
2021/03/12 16:45:47;;;;;;;12.55;2.03;;;7.50;88.40;;;;;;4980627;28;19916;-96
2021/03/12 16:48:43;;;;;;;8.23;1.70;;;7.60;88.60;;;;;;4980977;28;20062;-96